createdAt,value
2023-02-08T00:00:37.049Z,14.73
2023-02-08T00:03:43.514Z,15.55
2023-02-08T00:06:49.576Z,15.70
2023-02-08T00:09:56.326Z,14.35
2023-02-08T00:13:02.631Z,14.03
2023-02-08T00:16:09.601Z,15.85
2023-02-08T00:19:15.565Z,15.78
2023-02-08T00:22:21.810Z,16.25
2023-02-08T00:25:26.930Z,14.28
2023-02-08T00:28:34.697Z,14.33
2023-02-08T00:31:40.372Z,14.25
2023-02-08T00:34:47.186Z,13.78
2023-02-08T00:37:53.040Z,14.18
2023-02-08T00:40:59.568Z,15.13
2023-02-08T00:44:04.360Z,13.93
2023-02-08T00:47:10.270Z,14.25
2023-02-08T00:50:16.455Z,15.75
2023-02-08T00:53:22.505Z,14.55
2023-02-08T00:56:29.088Z,16.32
2023-02-08T00:59:34.798Z,14.05
2023-02-08T01:02:33.567Z,15.35
2023-02-08T01:05:39.718Z,12.70
2023-02-08T01:08:44.613Z,14.40
2023-02-08T01:11:52.618Z,13.62
2023-02-08T01:14:58.966Z,13.83
2023-02-08T01:18:09.671Z,13.13
2023-02-08T01:21:28.092Z,13.98
2023-02-08T01:24:33.528Z,13.72
2023-02-08T01:27:39.939Z,14.80
2023-02-08T01:30:45.596Z,14.80
2023-02-08T01:33:51.444Z,15.08
2023-02-08T01:36:59.067Z,14.90
2023-02-08T01:40:05.602Z,15.40
2023-02-08T01:43:11.326Z,15.75
2023-02-08T01:46:17.187Z,15.63
2023-02-08T01:49:39.684Z,13.80
2023-02-08T01:52:47.136Z,14.60
2023-02-08T01:55:57.024Z,14.18
2023-02-08T01:59:05.055Z,14.50
2023-02-08T02:02:11.482Z,14.38
2023-02-08T02:05:18.316Z,14.85
2023-02-08T02:08:25.751Z,15.03
2023-02-08T02:11:30.433Z,13.53
2023-02-08T02:14:35.740Z,14.68
2023-02-08T02:17:41.183Z,14.10
2023-02-08T02:21:37.173Z,15.15
2023-02-08T02:25:22.529Z,15.68
2023-02-08T02:29:02.984Z,12.50
2023-02-08T02:32:42.875Z,17.10
2023-02-08T02:36:22.425Z,13.83
2023-02-08T02:43:21.775Z,13.75
2023-02-08T02:46:37.928Z,15.55
2023-02-08T02:50:03.210Z,14.18
2023-02-08T02:53:17.646Z,15.05
2023-02-08T02:56:38.108Z,13.95
2023-02-08T02:59:43.689Z,15.75
2023-02-08T03:02:51.905Z,17.48
2023-02-08T03:05:57.200Z,17.00
2023-02-08T03:09:26.948Z,16.35
2023-02-08T03:13:08.358Z,15.60
2023-02-08T03:16:18.441Z,17.35
2023-02-08T03:19:30.408Z,16.70
2023-02-08T03:22:49.258Z,16.80
2023-02-08T03:26:09.746Z,16.00
2023-02-08T03:29:39.902Z,16.70
2023-02-08T03:33:21.296Z,18.27
2023-02-08T03:36:40.634Z,17.12
2023-02-08T03:39:45.921Z,18.80
2023-02-08T03:42:52.643Z,16.65
2023-02-08T03:46:11.840Z,16.82
2023-02-08T03:49:20.966Z,17.35
2023-02-08T03:52:26.523Z,17.48
2023-02-08T03:55:39.361Z,17.62
2023-02-08T03:59:09.992Z,17.70
2023-02-08T04:02:18.877Z,17.57
2023-02-08T04:05:24.458Z,16.73
2023-02-08T04:08:29.861Z,17.45
2023-02-08T04:11:35.997Z,16.77
2023-02-08T04:14:41.990Z,15.98
2023-02-08T04:17:48.262Z,19.42
2023-02-08T04:20:53.895Z,18.07
2023-02-08T04:23:59.201Z,19.90
2023-02-08T04:27:06.123Z,19.00
2023-02-08T04:30:11.231Z,19.27
2023-02-08T04:33:18.880Z,19.10
2023-02-08T04:36:24.830Z,17.95
2023-02-08T04:39:31.120Z,15.75
2023-02-08T04:42:37.348Z,20.25
2023-02-08T04:45:43.408Z,18.05
2023-02-08T04:48:48.893Z,16.02
2023-02-08T04:51:53.855Z,15.58
2023-02-08T04:54:59.809Z,19.67
2023-02-08T04:58:05.719Z,18.65
2023-02-08T05:01:10.735Z,18.27
2023-02-08T05:04:16.685Z,15.20
2023-02-08T05:07:22.699Z,17.90
2023-02-08T05:10:27.680Z,18.62
2023-02-08T05:13:34.264Z,18.42
2023-02-08T05:16:39.005Z,17.57
2023-02-08T05:19:44.067Z,18.32
2023-02-08T05:22:50.734Z,17.02
2023-02-08T05:25:57.188Z,16.93
2023-02-08T05:29:03.817Z,16.80
2023-02-08T05:32:10.555Z,15.13
2023-02-08T05:35:16.347Z,16.12
2023-02-08T05:38:22.120Z,15.55
2023-02-08T05:41:28.378Z,16.55
2023-02-08T05:44:33.273Z,13.60
2023-02-08T05:47:38.479Z,17.32
2023-02-08T05:50:44.202Z,17.27
2023-02-08T05:53:50.353Z,16.55
2023-02-08T05:56:56.509Z,14.18
2023-02-08T06:00:01.378Z,16.80
2023-02-08T06:03:10.296Z,18.00
2023-02-08T06:06:18.820Z,15.98
2023-02-08T06:09:23.977Z,17.42
2023-02-08T06:12:29.753Z,16.75
2023-02-08T06:15:35.182Z,16.95
2023-02-08T06:18:39.694Z,13.83
2023-02-08T06:21:44.474Z,16.00
2023-02-08T06:24:50.007Z,15.28
2023-02-08T06:27:57.519Z,15.93
2023-02-08T06:31:06.547Z,15.43
2023-02-08T06:34:12.187Z,15.32
2023-02-08T06:37:18.112Z,15.15
2023-02-08T06:40:23.918Z,14.33
2023-02-08T06:43:29.793Z,28.65
2023-02-08T06:46:35.457Z,23.35
2023-02-08T06:49:42.091Z,20.48
2023-02-08T06:52:48.015Z,25.40
2023-02-08T06:55:54.708Z,26.62
2023-02-08T06:59:01.065Z,21.05
2023-02-08T07:02:06.252Z,27.17
2023-02-08T07:05:11.844Z,23.47
2023-02-08T07:08:18.588Z,21.77
2023-02-08T07:11:28.981Z,18.80
2023-02-08T07:14:34.729Z,21.52
2023-02-08T07:17:41.066Z,16.02
2023-02-08T07:20:46.639Z,25.70
2023-02-08T07:23:54.016Z,17.95
2023-02-08T07:26:59.898Z,14.98
2023-02-08T07:30:06.116Z,20.52
2023-02-08T07:33:13.009Z,14.55
2023-02-08T07:36:20.595Z,16.90
2023-02-08T07:39:25.678Z,14.35
2023-02-08T07:42:31.595Z,13.72
2023-02-08T07:45:40.807Z,15.48
2023-02-08T07:48:40.521Z,13.32
2023-02-08T07:51:26.796Z,13.43
2023-02-08T07:54:19.687Z,14.23
2023-02-08T07:57:12.173Z,13.20
2023-02-08T08:00:18.967Z,11.13
2023-02-08T08:03:24.671Z,14.23
2023-02-08T08:06:30.565Z,18.55
2023-02-08T08:09:36.897Z,14.18
2023-02-08T08:12:46.352Z,13.65
2023-02-08T08:15:54.935Z,13.53
2023-02-08T08:19:00.374Z,13.70
2023-02-08T08:22:06.148Z,13.28
2023-02-08T08:25:11.739Z,13.83
2023-02-08T08:28:18.501Z,13.88
2023-02-08T08:31:33.562Z,15.70
2023-02-08T08:34:38.813Z,20.55
2023-02-08T08:37:39.185Z,14.55
2023-02-08T08:40:45.660Z,13.55
2023-02-08T08:43:51.882Z,14.03
2023-02-08T08:46:57.089Z,15.10
2023-02-08T08:50:02.579Z,14.68
2023-02-08T08:53:08.128Z,15.15
2023-02-08T08:56:16.874Z,15.72
2023-02-08T08:59:25.189Z,14.03
2023-02-08T09:02:30.866Z,13.80
2023-02-08T09:05:41.344Z,12.60
2023-02-08T09:08:45.795Z,13.35
2023-02-08T09:11:52.743Z,10.63
2023-02-08T09:14:59.458Z,14.43
2023-02-08T09:18:06.188Z,15.78
2023-02-08T09:21:13.682Z,15.15
2023-02-08T09:24:19.487Z,11.80
2023-02-08T09:27:25.572Z,12.58
2023-02-08T09:30:30.783Z,13.40
2023-02-08T09:33:37.392Z,12.82
2023-02-08T09:36:49.085Z,13.75
2023-02-08T09:39:55.271Z,15.40
2023-02-08T09:43:05.083Z,12.82
2023-02-08T09:46:36.753Z,12.00
2023-02-08T09:49:48.811Z,12.33
2023-02-08T09:53:09.276Z,13.78
2023-02-08T09:56:17.114Z,11.63
2023-02-08T09:59:38.448Z,11.20
2023-02-08T10:02:46.198Z,14.05
2023-02-08T10:05:51.721Z,10.40
2023-02-08T10:08:58.044Z,13.28
2023-02-08T10:12:30.863Z,12.15
2023-02-08T10:15:49.122Z,11.53
2023-02-08T10:18:53.414Z,12.63
2023-02-08T10:21:52.757Z,12.80
2023-02-08T10:25:30.574Z,11.75
2023-02-08T10:28:34.300Z,11.10
2023-02-08T10:31:51.556Z,9.03
2023-02-08T10:35:11.270Z,11.45
2023-02-08T10:38:16.236Z,11.70
2023-02-08T10:41:23.076Z,14.00
2023-02-08T10:44:51.388Z,14.68
2023-02-08T10:48:09.489Z,14.13
2023-02-08T10:51:15.126Z,11.43
2023-02-08T10:54:20.548Z,13.35
2023-02-08T10:57:30.345Z,11.10
2023-02-08T11:00:39.316Z,12.63
2023-02-08T11:03:46.604Z,12.83
2023-02-08T11:06:56.774Z,13.60
2023-02-08T11:10:03.471Z,11.65
2023-02-08T11:13:36.442Z,13.53
2023-02-08T11:16:42.587Z,10.38
2023-02-08T11:19:54.109Z,11.50
2023-02-08T11:23:00.064Z,11.08
2023-02-08T11:26:06.076Z,10.43
2023-02-08T11:29:33.755Z,11.50
2023-02-08T11:32:42.177Z,12.45
2023-02-08T11:35:48.252Z,11.15
2023-02-08T11:38:49.983Z,10.65
2023-02-08T11:41:58.651Z,11.00
2023-02-08T11:45:03.818Z,10.23
2023-02-08T11:48:10.879Z,12.28
2023-02-08T11:51:18.041Z,9.50
2023-02-08T11:54:27.317Z,10.23
2023-02-08T12:00:43.215Z,9.75
2023-02-08T12:03:57.544Z,10.70
2023-02-08T12:07:13.735Z,10.72
2023-02-08T12:10:35.716Z,11.00
2023-02-08T12:14:13.978Z,11.15
2023-02-08T12:17:50.515Z,11.45
2023-02-08T12:21:03.157Z,11.83
2023-02-08T12:24:22.646Z,9.88
2023-02-08T12:27:42.242Z,10.20
2023-02-08T12:31:01.696Z,9.20
2023-02-08T12:34:26.300Z,9.58
2023-02-08T12:38:06.023Z,9.13
2023-02-08T12:41:32.367Z,10.25
2023-02-08T12:45:22.831Z,9.38
2023-02-08T12:48:57.749Z,10.38
2023-02-08T12:52:30.635Z,10.43
2023-02-08T12:55:47.908Z,11.15
2023-02-08T12:59:13.825Z,11.65
2023-02-08T13:02:29.764Z,11.45
2023-02-08T13:05:36.148Z,10.93
2023-02-08T13:08:57.037Z,10.78
2023-02-08T13:12:08.649Z,11.80
2023-02-08T13:15:35.892Z,10.70
2023-02-08T13:18:52.014Z,11.20
2023-02-08T13:21:57.617Z,11.83
2023-02-08T13:25:08.012Z,12.30
2023-02-08T13:28:21.934Z,11.80
2023-02-08T13:31:31.141Z,12.20
2023-02-08T13:38:06.458Z,12.65
2023-02-08T13:41:24.351Z,10.98
2023-02-08T13:44:37.298Z,11.20
2023-02-08T13:47:48.575Z,11.15
2023-02-08T13:51:04.429Z,12.33
2023-02-08T13:54:20.156Z,11.28
2023-02-08T13:58:07.782Z,10.90
2023-02-08T14:01:16.380Z,10.50
2023-02-08T14:04:30.002Z,10.45
2023-02-08T14:07:43.158Z,11.43
2023-02-08T14:10:55.424Z,10.30
2023-02-08T14:14:10.685Z,10.08
2023-02-08T14:17:38.893Z,10.90
2023-02-08T14:20:51.192Z,10.58
2023-02-08T14:23:57.712Z,11.83
2023-02-08T14:27:02.335Z,10.63
2023-02-08T14:30:32.367Z,11.70
2023-02-08T14:33:54.733Z,11.12
2023-02-08T14:37:00.592Z,12.37
2023-02-08T14:40:05.959Z,11.08
2023-02-08T14:43:21.368Z,10.28
2023-02-08T14:46:53.059Z,10.50
2023-02-08T14:49:59.376Z,10.03
2023-02-08T14:53:35.894Z,10.70
2023-02-08T14:56:50.745Z,11.55
2023-02-08T14:59:50.291Z,11.00
2023-02-08T15:02:43.946Z,11.25
2023-02-08T15:09:00.105Z,11.48
2023-02-08T15:12:18.668Z,11.33
2023-02-08T15:15:44.898Z,8.28
2023-02-08T15:18:51.518Z,10.53
2023-02-08T15:21:58.000Z,9.83
2023-02-08T15:25:12.439Z,10.50
2023-02-08T15:28:33.085Z,11.48
2023-02-08T15:31:47.160Z,11.12
2023-02-08T15:34:54.924Z,10.72
2023-02-08T15:38:01.830Z,10.20
2023-02-08T15:41:26.416Z,10.50
2023-02-08T15:44:44.225Z,9.68
2023-02-08T15:47:51.601Z,11.22
2023-02-08T15:50:57.586Z,12.03
2023-02-08T15:54:08.864Z,11.22
2023-02-08T15:57:20.797Z,11.60
2023-02-08T16:00:39.841Z,10.60
2023-02-08T16:03:45.994Z,10.78
2023-02-08T16:06:55.278Z,10.38
2023-02-08T16:10:02.286Z,9.38
2023-02-08T16:13:13.644Z,9.88
2023-02-08T16:16:40.730Z,9.75
2023-02-08T16:19:47.960Z,11.12
2023-02-08T16:22:53.742Z,10.85
2023-02-08T16:26:00.124Z,12.53
2023-02-08T16:29:13.490Z,10.93
2023-02-08T16:32:21.543Z,12.40
2023-02-08T16:35:29.504Z,11.80
2023-02-08T16:38:37.317Z,11.80
2023-02-08T16:41:43.790Z,18.92
2023-02-08T16:44:51.078Z,14.73
2023-02-08T16:48:17.514Z,13.35
2023-02-08T16:51:12.730Z,27.42
2023-02-08T16:54:20.315Z,25.80
2023-02-08T16:57:26.683Z,42.98
2023-02-08T17:00:44.727Z,38.50
2023-02-08T17:03:50.943Z,32.28
2023-02-08T17:06:58.793Z,40.52
2023-02-08T17:10:04.222Z,40.73
2023-02-08T17:13:24.276Z,30.48
2023-02-08T17:16:16.016Z,31.73
2023-02-08T17:19:21.704Z,28.30
2023-02-08T17:22:27.900Z,32.98
2023-02-08T17:25:32.972Z,22.30
2023-02-08T17:28:41.122Z,17.10
2023-02-08T17:31:48.198Z,21.17
2023-02-08T17:34:54.233Z,18.37
2023-02-08T17:38:02.282Z,16.05
2023-02-08T17:41:01.491Z,17.62
2023-02-08T17:44:08.420Z,26.00
2023-02-08T17:47:14.088Z,17.62
2023-02-08T17:50:20.725Z,19.57
2023-02-08T17:53:26.874Z,19.02
2023-02-08T17:56:41.288Z,25.30
2023-02-08T17:59:46.156Z,16.17
2023-02-08T18:02:53.157Z,17.15
2023-02-08T18:05:58.853Z,21.55
2023-02-08T18:09:11.064Z,16.55
2023-02-08T18:12:17.478Z,16.00
2023-02-08T18:15:27.147Z,15.78
2023-02-08T18:18:32.369Z,14.68
2023-02-08T18:21:39.883Z,14.65
2023-02-08T18:24:46.345Z,11.43
2023-02-08T18:27:52.332Z,9.88
2023-02-08T18:30:58.608Z,10.90
2023-02-08T18:34:04.732Z,11.45
2023-02-08T18:37:10.177Z,10.95
2023-02-08T18:40:16.276Z,11.25
2023-02-08T18:43:22.369Z,11.83
2023-02-08T18:46:30.197Z,10.65
2023-02-08T18:49:36.698Z,10.98
2023-02-08T18:52:42.220Z,10.80
2023-02-08T18:55:34.476Z,10.88
2023-02-08T18:58:40.884Z,11.05
2023-02-08T19:01:46.925Z,10.60
2023-02-08T19:04:54.093Z,10.98
2023-02-08T19:08:00.251Z,11.78
2023-02-08T19:11:06.989Z,10.48
2023-02-08T19:14:14.022Z,11.70
2023-02-08T19:17:18.972Z,12.33
2023-02-08T19:20:26.127Z,12.53
2023-02-08T19:23:32.216Z,11.20
2023-02-08T19:26:40.456Z,12.07
2023-02-08T19:29:45.478Z,10.95
2023-02-08T19:32:51.616Z,12.33
2023-02-08T19:35:58.438Z,12.65
2023-02-08T19:39:04.909Z,11.30
2023-02-08T19:42:10.475Z,11.90
2023-02-08T19:45:15.586Z,12.55
2023-02-08T19:48:16.179Z,12.20
2023-02-08T19:51:22.164Z,13.28
2023-02-08T19:54:29.584Z,13.00
2023-02-08T19:57:35.274Z,12.58
2023-02-08T20:00:34.816Z,12.15
2023-02-08T20:03:41.021Z,12.58
2023-02-08T20:06:52.367Z,14.30
2023-02-08T20:09:58.034Z,12.95
2023-02-08T20:13:03.493Z,12.15
2023-02-08T20:16:12.090Z,12.65
2023-02-08T20:19:19.711Z,13.22
2023-02-08T20:22:26.021Z,14.47
2023-02-08T20:25:31.489Z,13.03
2023-02-08T20:28:37.142Z,15.10
2023-02-08T20:31:45.428Z,15.10
2023-02-08T20:34:59.372Z,12.40
2023-02-08T20:38:00.040Z,15.78
2023-02-08T20:41:06.457Z,13.88
2023-02-08T20:44:11.740Z,12.50
2023-02-08T20:47:18.423Z,13.68
2023-02-08T20:50:24.857Z,13.30
2023-02-08T20:53:30.949Z,15.18
2023-02-08T20:56:42.762Z,13.03
2023-02-08T20:59:47.766Z,16.25
2023-02-08T21:02:53.639Z,16.70
2023-02-08T21:06:00.058Z,15.32
2023-02-08T21:09:06.178Z,14.23
2023-02-08T21:12:12.920Z,14.73
2023-02-08T21:15:18.385Z,14.58
2023-02-08T21:18:24.200Z,15.23
2023-02-08T21:21:31.162Z,14.13
2023-02-08T21:24:37.845Z,14.25
2023-02-08T21:27:43.674Z,15.63
2023-02-08T21:30:49.698Z,14.53
2023-02-08T21:33:56.892Z,15.45
2023-02-08T21:37:03.229Z,16.12
2023-02-08T21:40:02.063Z,16.50
2023-02-08T21:43:08.157Z,15.13
2023-02-08T21:46:18.674Z,16.32
2023-02-08T21:49:41.811Z,16.93
2023-02-08T21:53:04.936Z,16.40
2023-02-08T21:56:10.370Z,17.23
2023-02-08T21:59:16.226Z,15.50
2023-02-08T22:02:34.929Z,16.05
2023-02-08T22:05:57.557Z,15.85
2023-02-08T22:09:03.814Z,15.68
2023-02-08T22:12:08.732Z,17.62
2023-02-08T22:15:14.331Z,16.15
2023-02-08T22:18:20.184Z,16.40
2023-02-08T22:21:24.694Z,16.23
2023-02-08T22:24:29.864Z,14.80
2023-02-08T22:27:36.178Z,16.37
2023-02-08T22:30:43.786Z,17.20
2023-02-08T22:33:49.466Z,17.75
2023-02-08T22:36:55.450Z,16.32
2023-02-08T22:40:00.223Z,15.45
2023-02-08T22:43:06.362Z,19.23
2023-02-08T22:46:15.312Z,15.72
2023-02-08T22:49:20.402Z,18.25
2023-02-08T22:52:26.062Z,16.65
2023-02-08T22:55:33.662Z,16.07
2023-02-08T22:58:39.590Z,17.00
2023-02-08T23:01:44.733Z,16.30
2023-02-08T23:04:51.335Z,17.20
2023-02-08T23:07:57.805Z,16.52
2023-02-08T23:11:03.161Z,16.57
2023-02-08T23:14:09.462Z,21.50
2023-02-08T23:17:15.670Z,16.93
2023-02-08T23:20:20.742Z,16.95
2023-02-08T23:23:26.372Z,17.10
2023-02-08T23:26:34.503Z,16.73
2023-02-08T23:29:40.657Z,18.20
2023-02-08T23:32:46.563Z,18.92
2023-02-08T23:35:56.298Z,17.82
2023-02-08T23:39:02.442Z,17.60
2023-02-08T23:42:10.669Z,16.90
2023-02-08T23:45:17.014Z,20.20
2023-02-08T23:48:22.549Z,18.82
2023-02-08T23:51:22.447Z,19.85
2023-02-08T23:54:15.571Z,19.82
2023-02-08T23:57:14.864Z,20.45
